sensor_id;sensor_type;location;lat;lon;timestamp;P1;durP1;ratioP1;P2;durP2;ratioP2
26906;SDS011;14472;56.880;16.658;2023-12-07T00:01:05;5.77;;;3.40;;
26906;SDS011;14472;56.880;16.658;2023-12-07T00:03:31;4.13;;;3.33;;
26906;SDS011;14472;56.880;16.658;2023-12-07T00:05:57;8.80;;;4.27;;
26906;SDS011;14472;56.880;16.658;2023-12-07T00:08:23;7.33;;;3.97;;
26906;SDS011;14472;56.880;16.658;2023-12-07T00:10:48;8.63;;;4.63;;
26906;SDS011;14472;56.880;16.658;2023-12-07T00:13:14;6.73;;;2.67;;
26906;SDS011;14472;56.880;16.658;2023-12-07T00:15:40;4.93;;;3.33;;
26906;SDS011;14472;56.880;16.658;2023-12-07T00:18:05;6.43;;;3.30;;
26906;SDS011;14472;56.880;16.658;2023-12-07T00:20:31;4.60;;;2.20;;
26906;SDS011;14472;56.880;16.658;2023-12-07T00:22:57;3.70;;;2.33;;
26906;SDS011;14472;56.880;16.658;2023-12-07T00:25:22;2.57;;;2.10;;
26906;SDS011;14472;56.880;16.658;2023-12-07T00:27:48;6.87;;;4.53;;
26906;SDS011;14472;56.880;16.658;2023-12-07T00:30:14;8.13;;;4.50;;
26906;SDS011;14472;56.880;16.658;2023-12-07T00:32:40;2.70;;;2.20;;
26906;SDS011;14472;56.880;16.658;2023-12-07T00:35:09;8.17;;;2.53;;
26906;SDS011;14472;56.880;16.658;2023-12-07T00:37:35;3.57;;;2.40;;
26906;SDS011;14472;56.880;16.658;2023-12-07T00:40:01;5.43;;;2.67;;
26906;SDS011;14472;56.880;16.658;2023-12-07T00:42:28;5.83;;;2.43;;
26906;SDS011;14472;56.880;16.658;2023-12-07T00:44:54;5.87;;;3.33;;
26906;SDS011;14472;56.880;16.658;2023-12-07T00:47:20;6.80;;;4.33;;
26906;SDS011;14472;56.880;16.658;2023-12-07T00:49:46;7.43;;;4.20;;
26906;SDS011;14472;56.880;16.658;2023-12-07T00:52:12;4.00;;;2.60;;
26906;SDS011;14472;56.880;16.658;2023-12-07T00:54:38;5.03;;;2.73;;
26906;SDS011;14472;56.880;16.658;2023-12-07T00:57:04;5.30;;;2.90;;
26906;SDS011;14472;56.880;16.658;2023-12-07T00:59:32;3.57;;;3.00;;
26906;SDS011;14472;56.880;16.658;2023-12-07T01:02:02;4.40;;;2.53;;
26906;SDS011;14472;56.880;16.658;2023-12-07T01:04:29;3.97;;;2.37;;
26906;SDS011;14472;56.880;16.658;2023-12-07T01:06:56;6.30;;;4.37;;
26906;SDS011;14472;56.880;16.658;2023-12-07T01:09:22;6.80;;;3.73;;
26906;SDS011;14472;56.880;16.658;2023-12-07T01:11:48;5.23;;;2.87;;
26906;SDS011;14472;56.880;16.658;2023-12-07T01:14:15;6.33;;;3.60;;
26906;SDS011;14472;56.880;16.658;2023-12-07T01:16:41;7.90;;;3.33;;
26906;SDS011;14472;56.880;16.658;2023-12-07T01:19:07;6.40;;;2.97;;
26906;SDS011;14472;56.880;16.658;2023-12-07T01:21:33;7.03;;;2.90;;
26906;SDS011;14472;56.880;16.658;2023-12-07T01:23:59;9.13;;;4.60;;
26906;SDS011;14472;56.880;16.658;2023-12-07T01:26:25;4.93;;;2.50;;
26906;SDS011;14472;56.880;16.658;2023-12-07T01:28:50;6.27;;;3.53;;
26906;SDS011;14472;56.880;16.658;2023-12-07T01:31:16;5.03;;;3.07;;
26906;SDS011;14472;56.880;16.658;2023-12-07T01:33:42;6.17;;;3.07;;
26906;SDS011;14472;56.880;16.658;2023-12-07T01:36:08;8.20;;;4.77;;
26906;SDS011;14472;56.880;16.658;2023-12-07T01:38:35;10.50;;;5.03;;
26906;SDS011;14472;56.880;16.658;2023-12-07T01:41:00;9.53;;;5.57;;
26906;SDS011;14472;56.880;16.658;2023-12-07T01:43:26;8.57;;;5.33;;
26906;SDS011;14472;56.880;16.658;2023-12-07T01:45:52;7.47;;;3.93;;
26906;SDS011;14472;56.880;16.658;2023-12-07T01:48:21;8.10;;;3.90;;
26906;SDS011;14472;56.880;16.658;2023-12-07T01:50:48;6.53;;;3.67;;
26906;SDS011;14472;56.880;16.658;2023-12-07T01:53:14;4.17;;;2.77;;
26906;SDS011;14472;56.880;16.658;2023-12-07T01:55:41;4.43;;;3.33;;
26906;SDS011;14472;56.880;16.658;2023-12-07T01:58:07;4.00;;;2.60;;
26906;SDS011;14472;56.880;16.658;2023-12-07T02:00:33;9.40;;;5.13;;
26906;SDS011;14472;56.880;16.658;2023-12-07T02:03:00;10.10;;;5.67;;
26906;SDS011;14472;56.880;16.658;2023-12-07T02:05:29;4.83;;;3.20;;
26906;SDS011;14472;56.880;16.658;2023-12-07T02:07:55;7.80;;;3.97;;
26906;SDS011;14472;56.880;16.658;2023-12-07T02:10:21;8.60;;;4.57;;
26906;SDS011;14472;56.880;16.658;2023-12-07T02:12:47;8.37;;;4.50;;
26906;SDS011;14472;56.880;16.658;2023-12-07T02:15:14;5.20;;;3.17;;
26906;SDS011;14472;56.880;16.658;2023-12-07T02:17:48;4.83;;;3.77;;
26906;SDS011;14472;56.880;16.658;2023-12-07T02:20:26;7.27;;;4.87;;
26906;SDS011;14472;56.880;16.658;2023-12-07T02:23:04;5.33;;;3.47;;
26906;SDS011;14472;56.880;16.658;2023-12-07T02:25:35;3.53;;;2.97;;
26906;SDS011;14472;56.880;16.658;2023-12-07T02:28:06;4.03;;;2.63;;
26906;SDS011;14472;56.880;16.658;2023-12-07T02:30:32;5.57;;;3.33;;
26906;SDS011;14472;56.880;16.658;2023-12-07T02:32:58;6.70;;;3.60;;
26906;SDS011;14472;56.880;16.658;2023-12-07T02:35:24;3.47;;;2.33;;
26906;SDS011;14472;56.880;16.658;2023-12-07T02:37:50;8.20;;;5.10;;
26906;SDS011;14472;56.880;16.658;2023-12-07T02:40:18;8.33;;;4.77;;
26906;SDS011;14472;56.880;16.658;2023-12-07T02:42:46;3.37;;;2.37;;
26906;SDS011;14472;56.880;16.658;2023-12-07T02:45:12;5.87;;;3.33;;
26906;SDS011;14472;56.880;16.658;2023-12-07T02:47:39;4.70;;;2.83;;
26906;SDS011;14472;56.880;16.658;2023-12-07T02:50:06;6.47;;;3.20;;
26906;SDS011;14472;56.880;16.658;2023-12-07T02:52:33;4.33;;;2.83;;
26906;SDS011;14472;56.880;16.658;2023-12-07T02:54:59;6.10;;;2.97;;
26906;SDS011;14472;56.880;16.658;2023-12-07T02:57:24;6.53;;;4.23;;
26906;SDS011;14472;56.880;16.658;2023-12-07T02:59:50;8.57;;;4.70;;
26906;SDS011;14472;56.880;16.658;2023-12-07T03:02:16;6.63;;;3.03;;
26906;SDS011;14472;56.880;16.658;2023-12-07T03:04:41;6.87;;;3.80;;
26906;SDS011;14472;56.880;16.658;2023-12-07T03:07:07;4.50;;;3.20;;
26906;SDS011;14472;56.880;16.658;2023-12-07T03:09:33;5.07;;;3.10;;
26906;SDS011;14472;56.880;16.658;2023-12-07T03:11:58;6.93;;;3.20;;
26906;SDS011;14472;56.880;16.658;2023-12-07T03:14:24;6.80;;;3.70;;
26906;SDS011;14472;56.880;16.658;2023-12-07T03:16:50;10.30;;;4.97;;
26906;SDS011;14472;56.880;16.658;2023-12-07T03:19:15;7.13;;;4.00;;
26906;SDS011;14472;56.880;16.658;2023-12-07T03:21:41;3.53;;;2.80;;
26906;SDS011;14472;56.880;16.658;2023-12-07T03:24:10;4.37;;;2.87;;
26906;SDS011;14472;56.880;16.658;2023-12-07T03:26:36;3.47;;;2.67;;
26906;SDS011;14472;56.880;16.658;2023-12-07T03:29:02;6.10;;;3.43;;
26906;SDS011;14472;56.880;16.658;2023-12-07T03:31:28;4.17;;;3.37;;
26906;SDS011;14472;56.880;16.658;2023-12-07T03:33:54;9.63;;;5.13;;
26906;SDS011;14472;56.880;16.658;2023-12-07T03:36:21;8.87;;;4.97;;
26906;SDS011;14472;56.880;16.658;2023-12-07T03:38:47;8.97;;;5.27;;
26906;SDS011;14472;56.880;16.658;2023-12-07T03:41:13;5.23;;;3.50;;
26906;SDS011;14472;56.880;16.658;2023-12-07T03:43:39;4.87;;;3.00;;
26906;SDS011;14472;56.880;16.658;2023-12-07T03:46:06;7.20;;;3.47;;
26906;SDS011;14472;56.880;16.658;2023-12-07T03:48:32;4.20;;;3.10;;
26906;SDS011;14472;56.880;16.658;2023-12-07T03:50:58;10.07;;;5.50;;
26906;SDS011;14472;56.880;16.658;2023-12-07T03:53:24;10.40;;;6.07;;
26906;SDS011;14472;56.880;16.658;2023-12-07T03:55:50;10.50;;;6.30;;
26906;SDS011;14472;56.880;16.658;2023-12-07T03:58:16;10.07;;;5.33;;
26906;SDS011;14472;56.880;16.658;2023-12-07T04:00:42;12.73;;;6.30;;
26906;SDS011;14472;56.880;16.658;2023-12-07T04:03:09;11.40;;;6.10;;
26906;SDS011;14472;56.880;16.658;2023-12-07T04:05:34;10.67;;;5.90;;
26906;SDS011;14472;56.880;16.658;2023-12-07T04:08:00;10.00;;;5.80;;
26906;SDS011;14472;56.880;16.658;2023-12-07T04:10:26;10.27;;;5.83;;
26906;SDS011;14472;56.880;16.658;2023-12-07T04:12:51;10.97;;;6.33;;
26906;SDS011;14472;56.880;16.658;2023-12-07T04:15:20;11.07;;;6.87;;
26906;SDS011;14472;56.880;16.658;2023-12-07T04:17:46;11.77;;;6.40;;
26906;SDS011;14472;56.880;16.658;2023-12-07T04:20:12;9.90;;;6.17;;
26906;SDS011;14472;56.880;16.658;2023-12-07T04:22:38;11.00;;;6.67;;
26906;SDS011;14472;56.880;16.658;2023-12-07T04:25:05;11.77;;;6.70;;
26906;SDS011;14472;56.880;16.658;2023-12-07T04:27:32;15.63;;;7.23;;
26906;SDS011;14472;56.880;16.658;2023-12-07T04:29:58;11.83;;;7.03;;
26906;SDS011;14472;56.880;16.658;2023-12-07T04:32:24;12.20;;;6.77;;
26906;SDS011;14472;56.880;16.658;2023-12-07T04:34:50;13.80;;;7.37;;
26906;SDS011;14472;56.880;16.658;2023-12-07T04:37:16;14.23;;;6.53;;
26906;SDS011;14472;56.880;16.658;2023-12-07T04:39:42;11.77;;;6.87;;
26906;SDS011;14472;56.880;16.658;2023-12-07T04:42:08;13.93;;;7.03;;
26906;SDS011;14472;56.880;16.658;2023-12-07T04:44:33;12.53;;;7.40;;
26906;SDS011;14472;56.880;16.658;2023-12-07T04:46:59;11.60;;;7.20;;
26906;SDS011;14472;56.880;16.658;2023-12-07T04:49:25;12.80;;;7.07;;
26906;SDS011;14472;56.880;16.658;2023-12-07T04:51:51;16.50;;;8.00;;
26906;SDS011;14472;56.880;16.658;2023-12-07T04:54:17;14.10;;;8.17;;
26906;SDS011;14472;56.880;16.658;2023-12-07T04:56:42;11.63;;;7.00;;
26906;SDS011;14472;56.880;16.658;2023-12-07T04:59:09;12.60;;;7.10;;
26906;SDS011;14472;56.880;16.658;2023-12-07T05:01:35;14.43;;;7.37;;
26906;SDS011;14472;56.880;16.658;2023-12-07T05:04:01;13.10;;;7.03;;
26906;SDS011;14472;56.880;16.658;2023-12-07T05:06:34;13.63;;;7.60;;
26906;SDS011;14472;56.880;16.658;2023-12-07T05:09:00;13.57;;;7.53;;
26906;SDS011;14472;56.880;16.658;2023-12-07T05:11:26;13.67;;;8.47;;
26906;SDS011;14472;56.880;16.658;2023-12-07T05:13:52;17.90;;;8.70;;
26906;SDS011;14472;56.880;16.658;2023-12-07T05:16:17;12.57;;;7.23;;
26906;SDS011;14472;56.880;16.658;2023-12-07T05:18:43;14.83;;;8.00;;
26906;SDS011;14472;56.880;16.658;2023-12-07T05:21:09;13.90;;;8.00;;
26906;SDS011;14472;56.880;16.658;2023-12-07T05:23:35;13.60;;;8.30;;
26906;SDS011;14472;56.880;16.658;2023-12-07T05:26:00;14.90;;;8.33;;
26906;SDS011;14472;56.880;16.658;2023-12-07T05:28:26;15.63;;;8.33;;
26906;SDS011;14472;56.880;16.658;2023-12-07T05:30:52;14.60;;;9.10;;
26906;SDS011;14472;56.880;16.658;2023-12-07T05:33:18;16.70;;;9.03;;
26906;SDS011;14472;56.880;16.658;2023-12-07T05:35:44;13.00;;;7.73;;
26906;SDS011;14472;56.880;16.658;2023-12-07T05:38:10;12.77;;;7.47;;
26906;SDS011;14472;56.880;16.658;2023-12-07T05:40:36;14.87;;;8.57;;
26906;SDS011;14472;56.880;16.658;2023-12-07T05:43:02;13.93;;;7.80;;
26906;SDS011;14472;56.880;16.658;2023-12-07T05:45:28;17.73;;;8.47;;
26906;SDS011;14472;56.880;16.658;2023-12-07T05:47:55;15.20;;;8.20;;
26906;SDS011;14472;56.880;16.658;2023-12-07T05:50:21;15.17;;;8.93;;
26906;SDS011;14472;56.880;16.658;2023-12-07T05:52:46;16.57;;;9.10;;
26906;SDS011;14472;56.880;16.658;2023-12-07T05:55:12;16.03;;;8.50;;
26906;SDS011;14472;56.880;16.658;2023-12-07T05:57:38;14.53;;;7.77;;
26906;SDS011;14472;56.880;16.658;2023-12-07T06:00:04;15.03;;;7.77;;
26906;SDS011;14472;56.880;16.658;2023-12-07T06:02:34;13.93;;;7.30;;
26906;SDS011;14472;56.880;16.658;2023-12-07T06:05:00;13.50;;;6.83;;
26906;SDS011;14472;56.880;16.658;2023-12-07T06:07:29;12.67;;;7.40;;
26906;SDS011;14472;56.880;16.658;2023-12-07T06:09:54;19.77;;;8.73;;
26906;SDS011;14472;56.880;16.658;2023-12-07T06:12:20;15.90;;;8.83;;
26906;SDS011;14472;56.880;16.658;2023-12-07T06:14:47;16.70;;;8.37;;
26906;SDS011;14472;56.880;16.658;2023-12-07T06:17:13;17.43;;;9.87;;
26906;SDS011;14472;56.880;16.658;2023-12-07T06:19:38;16.97;;;9.07;;
26906;SDS011;14472;56.880;16.658;2023-12-07T06:22:04;19.83;;;9.47;;
26906;SDS011;14472;56.880;16.658;2023-12-07T06:24:31;19.07;;;9.13;;
26906;SDS011;14472;56.880;16.658;2023-12-07T06:26:57;20.37;;;9.87;;
26906;SDS011;14472;56.880;16.658;2023-12-07T06:29:24;18.53;;;9.83;;
26906;SDS011;14472;56.880;16.658;2023-12-07T06:31:50;18.73;;;9.67;;
26906;SDS011;14472;56.880;16.658;2023-12-07T06:34:15;18.03;;;9.10;;
26906;SDS011;14472;56.880;16.658;2023-12-07T06:36:41;15.53;;;8.60;;
26906;SDS011;14472;56.880;16.658;2023-12-07T06:39:08;18.43;;;8.70;;
26906;SDS011;14472;56.880;16.658;2023-12-07T06:41:34;18.03;;;8.27;;
26906;SDS011;14472;56.880;16.658;2023-12-07T06:44:00;16.80;;;9.00;;
26906;SDS011;14472;56.880;16.658;2023-12-07T06:46:25;17.53;;;9.50;;
26906;SDS011;14472;56.880;16.658;2023-12-07T06:48:51;15.27;;;9.07;;
26906;SDS011;14472;56.880;16.658;2023-12-07T06:51:17;16.87;;;8.43;;
26906;SDS011;14472;56.880;16.658;2023-12-07T06:53:43;17.63;;;9.37;;
26906;SDS011;14472;56.880;16.658;2023-12-07T06:56:08;20.13;;;9.77;;
26906;SDS011;14472;56.880;16.658;2023-12-07T06:58:34;19.67;;;9.93;;
26906;SDS011;14472;56.880;16.658;2023-12-07T07:01:00;18.67;;;10.20;;
26906;SDS011;14472;56.880;16.658;2023-12-07T07:03:25;14.80;;;8.53;;
26906;SDS011;14472;56.880;16.658;2023-12-07T07:05:52;17.30;;;9.87;;
26906;SDS011;14472;56.880;16.658;2023-12-07T07:08:19;25.73;;;11.63;;
26906;SDS011;14472;56.880;16.658;2023-12-07T07:10:45;21.30;;;10.53;;
26906;SDS011;14472;56.880;16.658;2023-12-07T07:13:12;19.70;;;9.90;;
26906;SDS011;14472;56.880;16.658;2023-12-07T07:15:41;18.03;;;9.77;;
26906;SDS011;14472;56.880;16.658;2023-12-07T07:18:08;21.93;;;10.03;;
26906;SDS011;14472;56.880;16.658;2023-12-07T07:20:34;20.37;;;10.03;;
26906;SDS011;14472;56.880;16.658;2023-12-07T07:23:00;17.00;;;9.53;;
26906;SDS011;14472;56.880;16.658;2023-12-07T07:25:25;22.83;;;10.63;;
26906;SDS011;14472;56.880;16.658;2023-12-07T07:27:51;17.97;;;9.37;;
26906;SDS011;14472;56.880;16.658;2023-12-07T07:30:19;24.77;;;10.40;;
26906;SDS011;14472;56.880;16.658;2023-12-07T07:32:45;19.87;;;6.43;;
26906;SDS011;14472;56.880;16.658;2023-12-07T07:35:11;15.50;;;7.27;;
26906;SDS011;14472;56.880;16.658;2023-12-07T07:37:37;14.23;;;7.30;;
26906;SDS011;14472;56.880;16.658;2023-12-07T07:40:03;13.93;;;6.57;;
26906;SDS011;14472;56.880;16.658;2023-12-07T07:42:32;20.00;;;10.90;;
26906;SDS011;14472;56.880;16.658;2023-12-07T07:44:58;21.43;;;9.90;;
26906;SDS011;14472;56.880;16.658;2023-12-07T07:47:24;9.07;;;5.90;;
26906;SDS011;14472;56.880;16.658;2023-12-07T07:49:49;14.03;;;7.50;;
26906;SDS011;14472;56.880;16.658;2023-12-07T07:52:15;13.57;;;6.63;;
26906;SDS011;14472;56.880;16.658;2023-12-07T07:54:42;11.73;;;7.07;;
26906;SDS011;14472;56.880;16.658;2023-12-07T07:57:08;12.70;;;6.17;;
26906;SDS011;14472;56.880;16.658;2023-12-07T07:59:33;16.10;;;6.13;;
26906;SDS011;14472;56.880;16.658;2023-12-07T08:01:59;18.40;;;9.73;;
26906;SDS011;14472;56.880;16.658;2023-12-07T08:04:25;19.37;;;9.10;;
26906;SDS011;14472;56.880;16.658;2023-12-07T08:06:50;13.20;;;7.33;;
26906;SDS011;14472;56.880;16.658;2023-12-07T08:09:16;10.47;;;5.90;;
26906;SDS011;14472;56.880;16.658;2023-12-07T08:11:42;9.70;;;5.87;;
26906;SDS011;14472;56.880;16.658;2023-12-07T08:14:08;11.23;;;5.63;;
26906;SDS011;14472;56.880;16.658;2023-12-07T08:16:33;10.57;;;6.03;;
26906;SDS011;14472;56.880;16.658;2023-12-07T08:18:59;12.83;;;6.27;;
26906;SDS011;14472;56.880;16.658;2023-12-07T08:21:25;19.83;;;8.70;;
26906;SDS011;14472;56.880;16.658;2023-12-07T08:23:51;18.13;;;9.63;;
26906;SDS011;14472;56.880;16.658;2023-12-07T08:26:17;10.60;;;6.63;;
26906;SDS011;14472;56.880;16.658;2023-12-07T08:28:43;13.73;;;5.90;;
26906;SDS011;14472;56.880;16.658;2023-12-07T08:31:12;12.00;;;6.53;;
26906;SDS011;14472;56.880;16.658;2023-12-07T08:33:38;19.67;;;8.67;;
26906;SDS011;14472;56.880;16.658;2023-12-07T08:36:04;14.53;;;8.60;;
26906;SDS011;14472;56.880;16.658;2023-12-07T08:38:31;10.57;;;5.50;;
26906;SDS011;14472;56.880;16.658;2023-12-07T08:40:57;15.00;;;8.47;;
26906;SDS011;14472;56.880;16.658;2023-12-07T08:43:23;19.50;;;8.60;;
26906;SDS011;14472;56.880;16.658;2023-12-07T08:45:50;11.87;;;6.60;;
26906;SDS011;14472;56.880;16.658;2023-12-07T08:48:22;13.30;;;7.17;;
26906;SDS011;14472;56.880;16.658;2023-12-07T08:50:47;9.47;;;5.70;;
26906;SDS011;14472;56.880;16.658;2023-12-07T08:53:13;10.80;;;6.67;;
26906;SDS011;14472;56.880;16.658;2023-12-07T08:55:39;9.07;;;6.00;;
26906;SDS011;14472;56.880;16.658;2023-12-07T08:58:05;13.03;;;6.63;;
26906;SDS011;14472;56.880;16.658;2023-12-07T09:00:31;13.00;;;6.93;;
26906;SDS011;14472;56.880;16.658;2023-12-07T09:02:57;12.97;;;6.93;;
26906;SDS011;14472;56.880;16.658;2023-12-07T09:05:23;9.30;;;4.87;;
26906;SDS011;14472;56.880;16.658;2023-12-07T09:07:48;10.30;;;5.20;;
26906;SDS011;14472;56.880;16.658;2023-12-07T09:10:14;9.20;;;5.20;;
26906;SDS011;14472;56.880;16.658;2023-12-07T09:12:40;9.27;;;4.87;;
26906;SDS011;14472;56.880;16.658;2023-12-07T09:15:06;7.07;;;4.67;;
26906;SDS011;14472;56.880;16.658;2023-12-07T09:17:32;8.10;;;5.03;;
26906;SDS011;14472;56.880;16.658;2023-12-07T09:19:58;20.73;;;7.40;;
26906;SDS011;14472;56.880;16.658;2023-12-07T09:22:25;12.03;;;6.77;;
26906;SDS011;14472;56.880;16.658;2023-12-07T09:24:50;7.67;;;4.47;;
26906;SDS011;14472;56.880;16.658;2023-12-07T09:27:16;9.10;;;4.57;;
26906;SDS011;14472;56.880;16.658;2023-12-07T09:29:42;7.37;;;4.60;;
26906;SDS011;14472;56.880;16.658;2023-12-07T09:32:07;7.07;;;4.60;;
26906;SDS011;14472;56.880;16.658;2023-12-07T09:34:33;6.50;;;4.40;;
26906;SDS011;14472;56.880;16.658;2023-12-07T09:37:06;8.17;;;4.67;;
26906;SDS011;14472;56.880;16.658;2023-12-07T09:39:32;9.67;;;5.50;;
26906;SDS011;14472;56.880;16.658;2023-12-07T09:41:58;15.03;;;6.83;;
26906;SDS011;14472;56.880;16.658;2023-12-07T09:44:24;10.83;;;6.03;;
26906;SDS011;14472;56.880;16.658;2023-12-07T09:46:50;6.17;;;4.03;;
26906;SDS011;14472;56.880;16.658;2023-12-07T09:49:16;8.53;;;4.90;;
26906;SDS011;14472;56.880;16.658;2023-12-07T09:51:42;6.70;;;4.50;;
26906;SDS011;14472;56.880;16.658;2023-12-07T09:54:09;8.47;;;4.83;;
26906;SDS011;14472;56.880;16.658;2023-12-07T09:56:35;8.67;;;5.13;;
26906;SDS011;14472;56.880;16.658;2023-12-07T09:59:01;9.53;;;5.17;;
26906;SDS011;14472;56.880;16.658;2023-12-07T10:01:30;9.57;;;5.97;;
26906;SDS011;14472;56.880;16.658;2023-12-07T10:07:01;7.33;;;4.13;;
26906;SDS011;14472;56.880;16.658;2023-12-07T10:09:27;6.03;;;4.33;;
26906;SDS011;14472;56.880;16.658;2023-12-07T10:12:02;9.60;;;5.30;;
26906;SDS011;14472;56.880;16.658;2023-12-07T10:14:29;11.47;;;5.20;;
26906;SDS011;14472;56.880;16.658;2023-12-07T10:16:55;9.33;;;5.33;;
26906;SDS011;14472;56.880;16.658;2023-12-07T10:19:21;11.03;;;5.53;;
26906;SDS011;14472;56.880;16.658;2023-12-07T10:21:48;10.33;;;5.47;;
26906;SDS011;14472;56.880;16.658;2023-12-07T10:24:24;12.67;;;6.30;;
26906;SDS011;14472;56.880;16.658;2023-12-07T10:26:51;12.77;;;6.40;;
26906;SDS011;14472;56.880;16.658;2023-12-07T10:29:18;8.33;;;5.23;;
26906;SDS011;14472;56.880;16.658;2023-12-07T10:31:48;10.53;;;5.57;;
26906;SDS011;14472;56.880;16.658;2023-12-07T10:34:17;9.33;;;5.00;;
26906;SDS011;14472;56.880;16.658;2023-12-07T10:36:46;10.47;;;5.90;;
26906;SDS011;14472;56.880;16.658;2023-12-07T10:39:13;8.03;;;4.60;;
26906;SDS011;14472;56.880;16.658;2023-12-07T10:41:38;8.33;;;4.87;;
26906;SDS011;14472;56.880;16.658;2023-12-07T10:44:09;10.57;;;5.83;;
26906;SDS011;14472;56.880;16.658;2023-12-07T10:46:38;7.40;;;4.73;;
26906;SDS011;14472;56.880;16.658;2023-12-07T10:49:07;9.73;;;4.87;;
26906;SDS011;14472;56.880;16.658;2023-12-07T10:51:44;9.30;;;5.60;;
26906;SDS011;14472;56.880;16.658;2023-12-07T10:54:23;8.43;;;4.93;;
26906;SDS011;14472;56.880;16.658;2023-12-07T10:56:52;10.73;;;5.47;;
26906;SDS011;14472;56.880;16.658;2023-12-07T10:59:19;8.00;;;4.87;;
26906;SDS011;14472;56.880;16.658;2023-12-07T11:01:45;10.40;;;5.27;;
26906;SDS011;14472;56.880;16.658;2023-12-07T11:04:13;11.03;;;5.77;;
26906;SDS011;14472;56.880;16.658;2023-12-07T11:06:40;11.93;;;5.50;;
26906;SDS011;14472;56.880;16.658;2023-12-07T11:09:08;10.00;;;5.47;;
26906;SDS011;14472;56.880;16.658;2023-12-07T11:14:09;9.70;;;5.37;;
26906;SDS011;14472;56.880;16.658;2023-12-07T11:16:37;13.03;;;6.07;;
26906;SDS011;14472;56.880;16.658;2023-12-07T11:19:40;10.83;;;5.77;;
26906;SDS011;14472;56.880;16.658;2023-12-07T11:22:09;8.97;;;6.07;;
26906;SDS011;14472;56.880;16.658;2023-12-07T11:24:56;11.10;;;6.03;;
26906;SDS011;14472;56.880;16.658;2023-12-07T11:27:23;1.20;;;0.97;;
26906;SDS011;14472;56.880;16.658;2023-12-07T11:29:50;1.50;;;1.40;;
26906;SDS011;14472;56.880;16.658;2023-12-07T11:32:16;3.03;;;2.17;;
26906;SDS011;14472;56.880;16.658;2023-12-07T11:34:43;13.03;;;7.33;;
26906;SDS011;14472;56.880;16.658;2023-12-07T11:37:10;10.47;;;7.00;;
26906;SDS011;14472;56.880;16.658;2023-12-07T11:39:37;5.83;;;3.80;;
26906;SDS011;14472;56.880;16.658;2023-12-07T11:44:37;5.23;;;3.63;;
26906;SDS011;14472;56.880;16.658;2023-12-07T11:47:04;11.33;;;6.73;;
26906;SDS011;14472;56.880;16.658;2023-12-07T11:49:30;7.80;;;5.33;;
26906;SDS011;14472;56.880;16.658;2023-12-07T11:51:57;6.03;;;4.00;;
26906;SDS011;14472;56.880;16.658;2023-12-07T11:54:23;7.10;;;4.20;;
26906;SDS011;14472;56.880;16.658;2023-12-07T11:56:53;5.57;;;3.43;;
26906;SDS011;14472;56.880;16.658;2023-12-07T11:59:19;6.20;;;3.47;;
26906;SDS011;14472;56.880;16.658;2023-12-07T12:01:48;4.70;;;3.60;;
26906;SDS011;14472;56.880;16.658;2023-12-07T12:04:14;5.80;;;3.93;;
26906;SDS011;14472;56.880;16.658;2023-12-07T12:06:43;9.97;;;5.57;;
26906;SDS011;14472;56.880;16.658;2023-12-07T12:09:09;7.57;;;3.87;;
26906;SDS011;14472;56.880;16.658;2023-12-07T12:11:48;7.07;;;3.60;;
26906;SDS011;14472;56.880;16.658;2023-12-07T12:14:17;6.77;;;4.07;;
26906;SDS011;14472;56.880;16.658;2023-12-07T12:16:45;6.83;;;3.87;;
26906;SDS011;14472;56.880;16.658;2023-12-07T12:19:11;8.17;;;3.73;;
26906;SDS011;14472;56.880;16.658;2023-12-07T12:21:39;8.93;;;5.67;;
26906;SDS011;14472;56.880;16.658;2023-12-07T12:24:06;8.80;;;5.10;;
26906;SDS011;14472;56.880;16.658;2023-12-07T12:26:34;5.10;;;3.70;;
26906;SDS011;14472;56.880;16.658;2023-12-07T12:29:02;7.13;;;4.83;;
26906;SDS011;14472;56.880;16.658;2023-12-07T12:31:28;7.30;;;4.23;;
26906;SDS011;14472;56.880;16.658;2023-12-07T12:33:54;7.30;;;3.73;;
26906;SDS011;14472;56.880;16.658;2023-12-07T12:36:20;8.37;;;4.17;;
26906;SDS011;14472;56.880;16.658;2023-12-07T12:38:52;6.00;;;3.53;;
26906;SDS011;14472;56.880;16.658;2023-12-07T12:41:21;9.80;;;5.47;;
26906;SDS011;14472;56.880;16.658;2023-12-07T12:43:48;4.83;;;3.67;;
26906;SDS011;14472;56.880;16.658;2023-12-07T12:46:15;7.73;;;3.93;;
26906;SDS011;14472;56.880;16.658;2023-12-07T12:51:26;9.23;;;5.67;;
26906;SDS011;14472;56.880;16.658;2023-12-07T12:53:55;8.40;;;5.20;;
26906;SDS011;14472;56.880;16.658;2023-12-07T12:56:21;7.87;;;4.63;;
26906;SDS011;14472;56.880;16.658;2023-12-07T12:58:51;9.53;;;5.10;;
26906;SDS011;14472;56.880;16.658;2023-12-07T13:01:17;7.70;;;4.97;;
26906;SDS011;14472;56.880;16.658;2023-12-07T13:03:46;4.60;;;3.03;;
26906;SDS011;14472;56.880;16.658;2023-12-07T13:06:16;3.47;;;2.70;;
26906;SDS011;14472;56.880;16.658;2023-12-07T13:08:46;3.83;;;3.33;;
26906;SDS011;14472;56.880;16.658;2023-12-07T13:11:16;7.47;;;5.00;;
26906;SDS011;14472;56.880;16.658;2023-12-07T13:13:42;6.20;;;3.80;;
26906;SDS011;14472;56.880;16.658;2023-12-07T13:16:09;4.90;;;3.53;;
26906;SDS011;14472;56.880;16.658;2023-12-07T13:18:37;5.40;;;3.57;;
26906;SDS011;14472;56.880;16.658;2023-12-07T13:21:03;9.40;;;4.23;;
26906;SDS011;14472;56.880;16.658;2023-12-07T13:23:28;9.93;;;5.23;;
26906;SDS011;14472;56.880;16.658;2023-12-07T13:25:54;11.17;;;5.03;;
26906;SDS011;14472;56.880;16.658;2023-12-07T13:28:20;8.30;;;4.67;;
26906;SDS011;14472;56.880;16.658;2023-12-07T13:30:46;7.33;;;4.23;;
26906;SDS011;14472;56.880;16.658;2023-12-07T13:33:11;12.03;;;5.20;;
26906;SDS011;14472;56.880;16.658;2023-12-07T13:35:37;7.00;;;4.53;;
26906;SDS011;14472;56.880;16.658;2023-12-07T13:38:03;9.17;;;5.50;;
26906;SDS011;14472;56.880;16.658;2023-12-07T13:40:29;11.20;;;6.43;;
26906;SDS011;14472;56.880;16.658;2023-12-07T13:42:55;13.40;;;6.50;;
26906;SDS011;14472;56.880;16.658;2023-12-07T13:45:21;6.77;;;4.00;;
26906;SDS011;14472;56.880;16.658;2023-12-07T13:47:46;8.27;;;5.03;;
26906;SDS011;14472;56.880;16.658;2023-12-07T13:50:13;11.00;;;5.83;;
26906;SDS011;14472;56.880;16.658;2023-12-07T13:52:39;9.60;;;5.20;;
26906;SDS011;14472;56.880;16.658;2023-12-07T13:55:04;8.20;;;5.30;;
26906;SDS011;14472;56.880;16.658;2023-12-07T13:57:30;10.93;;;5.40;;
26906;SDS011;14472;56.880;16.658;2023-12-07T13:59:56;11.80;;;7.03;;
26906;SDS011;14472;56.880;16.658;2023-12-07T14:02:22;10.67;;;6.63;;
26906;SDS011;14472;56.880;16.658;2023-12-07T14:04:49;9.13;;;4.80;;
26906;SDS011;14472;56.880;16.658;2023-12-07T14:07:15;6.33;;;4.20;;
26906;SDS011;14472;56.880;16.658;2023-12-07T14:09:46;6.97;;;4.67;;
26906;SDS011;14472;56.880;16.658;2023-12-07T14:12:14;5.33;;;3.33;;
26906;SDS011;14472;56.880;16.658;2023-12-07T14:14:40;9.27;;;5.60;;
26906;SDS011;14472;56.880;16.658;2023-12-07T14:17:11;9.70;;;6.17;;
26906;SDS011;14472;56.880;16.658;2023-12-07T14:19:40;11.97;;;5.87;;
26906;SDS011;14472;56.880;16.658;2023-12-07T14:22:07;8.13;;;4.53;;
26906;SDS011;14472;56.880;16.658;2023-12-07T14:24:36;7.10;;;4.60;;
26906;SDS011;14472;56.880;16.658;2023-12-07T14:27:02;11.40;;;4.87;;
26906;SDS011;14472;56.880;16.658;2023-12-07T14:29:31;6.47;;;3.87;;
26906;SDS011;14472;56.880;16.658;2023-12-07T14:31:57;7.53;;;4.80;;
26906;SDS011;14472;56.880;16.658;2023-12-07T14:34:24;11.70;;;7.03;;
26906;SDS011;14472;56.880;16.658;2023-12-07T14:36:52;13.70;;;6.73;;